Iron Lady — WTK5059 — position and weather

sailwx.info

Track history (hours):
 
Tides and Currents Weather Stations Pressure Air Temp Water Temp Dewpoint Dewpoint Depression Visibility Wind Speed Wind Dir Waves Ship Positions

Iron Lady

Owner: IRON LADY INC, SOUTH BEND, WA. More information available from US FCC via Universal Licensing System and Coast Guard Vessel Documentation Center.

Last reported at 2017-Apr-25 12:01 UTC. Time now 2017-Apr-25 12:18 UTC.
Position N 46°10' W 123°55'.

Type: Fishing. MMSI: 367037240.

Date/timePositionNaut miles runAvg speedWind from/ knotsBaromVisibWave heightAir tempDewpointWater temp
2017-Apr-25 12:01N 46°10' W 123°55'0 0.0
2017-Apr-25 11:31N 46°10' W 123°55'0 0.0
2017-Apr-25 11:01N 46°10' W 123°55'0 0.0
2017-Apr-25 10:31N 46°10' W 123°55'0 0.0
2017-Apr-25 10:01N 46°10' W 123°55'0 0.0
2017-Apr-25 09:31N 46°10' W 123°55'0 0.0
2017-Apr-25 09:01N 46°10' W 123°55'0 0.0
2017-Apr-25 08:31N 46°10' W 123°55'0 0.0
2017-Apr-25 08:00N 46°10' W 123°55'0 0.0
2017-Apr-25 07:31N 46°10' W 123°55'0 0.0
2017-Apr-25 07:01N 46°10' W 123°55'0 0.0
2017-Apr-25 06:30N 46°10' W 123°55'0 0.0
2017-Apr-25 06:01N 46°10' W 123°55'0 0.0
2017-Apr-25 05:31N 46°10' W 123°55'0 0.0
2017-Apr-25 05:01N 46°10' W 123°55'0 0.0
2017-Apr-25 04:31N 46°10' W 123°55'0 0.0
2017-Apr-25 04:01N 46°10' W 123°55'0 0.0
2017-Apr-25 03:31N 46°10' W 123°55'0 0.0
2017-Apr-25 03:00N 46°10' W 123°55'0 0.0
2017-Apr-25 02:31N 46°10' W 123°55'0 0.0
2017-Apr-25 02:01N 46°10' W 123°55'0 0.0
2017-Apr-25 01:31N 46°10' W 123°55'0 0.0
2017-Apr-25 01:00N 46°10' W 123°55'0 0.0
2017-Apr-25 00:31N 46°10' W 123°55'0 0.0
2017-Apr-25 00:01N 46°10' W 123°55'0 0.0
2017-Apr-24 23:31N 46°10' W 123°55'0 0.0
2017-Apr-24 23:00N 46°10' W 123°55'0 0.0
2017-Apr-24 22:31N 46°10' W 123°55'0 0.0
2017-Apr-24 22:00N 46°10' W 123°55'1 1.8
2017-Apr-24 21:30N 46°11' W 123°54'3 5.9
2017-Apr-24 21:01N 46°13' W 123°58'3 6.0
2017-Apr-24 20:31N 46°15' W 124°01'3 6.7
2017-Apr-24 20:01N 46°15' W 124°06'4 7.5
2017-Apr-24 19:29N 46°18' W 124°10'4 7.7
2017-Apr-24 19:00N 46°21' W 124°13'4 7.3
2017-Apr-24 18:31N 46°25' W 124°14'4 7.3
2017-Apr-24 18:01N 46°28' W 124°15'3 6.7
2017-Apr-24 17:31N 46°31' W 124°17'3 6.3
2017-Apr-24 17:00N 46°34' W 124°20'3 5.8
2017-Apr-24 16:31N 46°36' W 124°23'4 6.4
2017-Apr-24 15:52N 46°39' W 124°26'3 7.2
2017-Apr-24 15:31N 46°41' W 124°28'3 6.8
2017-Apr-24 15:01N 46°44' W 124°31'1 2.7
2017-Apr-24 14:30N 46°45' W 124°32'2 2.5
2017-Apr-24 13:31N 46°48' W 124°33'1 2.5
2017-Apr-24 13:01N 46°49' W 124°33'1 2.5
2017-Apr-24 12:31N 46°50' W 124°34'1 2.7
2017-Apr-24 12:01N 46°52' W 124°34'3 5.5
2017-Apr-24 11:30N 46°54' W 124°36'4 6.7
2017-Apr-24 10:58N 46°57' W 124°40'3 6.5
2017-Apr-24 10:28N 46°59' W 124°43'2 0.2
2017-Apr-23 19:47N 46°57' W 124°43'2 5.8
2017-Apr-23 19:30N 46°55' W 124°43'1 2.1
2017-Apr-23 19:00N 46°54' W 124°44'1 2.7
2017-Apr-23 18:29N 46°53' W 124°44'8 3.3
2017-Apr-23 16:00N 46°45' W 124°43'  
2017-Apr-21 07:34N 46°28' W 124°29'21 8.9
2017-Apr-21 05:16N 46°15' W 124°06'2 9.1
2017-Apr-21 05:00N 46°16' W 124°03'7 8.6
2017-Apr-21 04:09N 46°11' W 123°54'1 6.2
2017-Apr-21 04:00N 46°10' W 123°55'0 0.0
2017-Apr-21 03:30N 46°10' W 123°55'0 0.0
2017-Apr-21 03:00N 46°10' W 123°55'0 0.0
2017-Apr-21 02:30N 46°10' W 123°55'0 0.0
2017-Apr-21 02:00N 46°10' W 123°55'0 0.0
2017-Apr-21 01:30N 46°10' W 123°55'0 0.0
2017-Apr-21 01:01N 46°10' W 123°55'0 0.0
2017-Apr-21 00:31N 46°10' W 123°55'0 0.0
2017-Apr-21 00:00N 46°10' W 123°55'0 0.0
2017-Apr-20 23:30N 46°10' W 123°55'0 0.0
2017-Apr-20 23:00N 46°10' W 123°55'0 0.0
2017-Apr-20 22:31N 46°10' W 123°55'0 0.0
2017-Apr-20 22:01N 46°10' W 123°55'0 0.0
2017-Apr-20 21:30N 46°10' W 123°55'0 0.0
2017-Apr-20 21:00N 46°10' W 123°55'0 0.0
2017-Apr-20 20:30N 46°10' W 123°55'0 0.0
2017-Apr-20 20:00N 46°10' W 123°55'0 0.0
2017-Apr-20 19:30N 46°10' W 123°55'0 0.0
2017-Apr-20 19:00N 46°10' W 123°55'0 0.0
2017-Apr-20 18:30N 46°10' W 123°55'0 0.0
2017-Apr-20 18:00N 46°10' W 123°55'0 0.1
2017-Apr-20 17:30N 46°10' W 123°55'0 0.1
2017-Apr-20 17:00N 46°10' W 123°55'0 0.1
2017-Apr-20 16:30N 46°10' W 123°55'0 0.0
2017-Apr-20 16:00N 46°10' W 123°55'0 0.0
2017-Apr-20 15:30N 46°10' W 123°55'0 0.0
2017-Apr-20 15:00N 46°10' W 123°55'0 0.0
2017-Apr-20 14:00N 46°10' W 123°55'0 0.0
2017-Apr-20 13:30N 46°10' W 123°55'0 0.0
2017-Apr-20 13:01N 46°10' W 123°55'0 0.0
2017-Apr-20 12:30N 46°10' W 123°55'0 0.0
2017-Apr-20 12:00N 46°10' W 123°55'0 0.0
2017-Apr-20 11:30N 46°10' W 123°55'0 0.0
2017-Apr-20 11:00N 46°10' W 123°55'0 0.0
2017-Apr-20 10:30N 46°10' W 123°55'0 0.0
2017-Apr-20 10:00N 46°10' W 123°55'0 0.0
2017-Apr-20 09:30N 46°10' W 123°55'0 0.0
2017-Apr-20 09:00N 46°10' W 123°55'0 0.0
2017-Apr-20 08:31N 46°10' W 123°55'0 0.0
2017-Apr-20 08:01N 46°10' W 123°55'0 0.0
2017-Apr-20 07:30N 46°10' W 123°55'0 0.0
2017-Apr-20 07:00N 46°10' W 123°55'0 0.0
2017-Apr-20 06:30N 46°10' W 123°55'0 0.0
2017-Apr-20 06:00N 46°10' W 123°55'0 0.0
2017-Apr-20 05:30N 46°10' W 123°55'0 0.0
2017-Apr-20 05:01N 46°10' W 123°55'0 0.0
2017-Apr-20 04:30N 46°10' W 123°55'0 0.0
2017-Apr-20 04:00N 46°10' W 123°55'0 0.0
2017-Apr-20 03:30N 46°10' W 123°55'0 0.0
2017-Apr-20 03:00N 46°10' W 123°55'0 0.0
2017-Apr-20 02:30N 46°10' W 123°55'0 0.0
2017-Apr-20 02:01N 46°10' W 123°55'0 0.0
2017-Apr-20 01:30N 46°10' W 123°55'0 0.0
2017-Apr-20 01:01N 46°10' W 123°55'0 0.0
2017-Apr-20 00:30N 46°10' W 123°55'0 0.0
2017-Apr-20 00:01N 46°10' W 123°55'0 0.0
2017-Apr-19 23:31N 46°10' W 123°55'0 0.0
2017-Apr-19 23:00N 46°10' W 123°55'0 0.0
2017-Apr-19 22:30N 46°10' W 123°55'0 0.0
2017-Apr-19 22:00N 46°10' W 123°55'0 0.0
2017-Apr-19 21:30N 46°10' W 123°55'0 0.0
2017-Apr-19 21:00N 46°10' W 123°55'0 0.0
2017-Apr-19 20:30N 46°10' W 123°55'0 0.0
2017-Apr-19 20:00N 46°10' W 123°55'0 0.0
2017-Apr-19 19:31N 46°10' W 123°55'0 0.0
2017-Apr-19 19:00N 46°10' W 123°55'0 0.0
2017-Apr-19 18:30N 46°10' W 123°55'0 0.0
2017-Apr-19 18:00N 46°10' W 123°55'0 0.0
2017-Apr-19 17:30N 46°10' W 123°55'0 0.0
2017-Apr-19 17:00N 46°10' W 123°55'0 0.0
2017-Apr-19 16:30N 46°10' W 123°55'0 0.0
2017-Apr-19 16:00N 46°10' W 123°55'0 0.0
2017-Apr-19 15:31N 46°10' W 123°55'0 0.0
2017-Apr-19 15:00N 46°10' W 123°55'0 0.0
2017-Apr-19 14:30N 46°10' W 123°55'0 0.0
2017-Apr-19 13:31N 46°10' W 123°55'0 0.0
2017-Apr-19 13:00N 46°10' W 123°55'0 0.0
2017-Apr-19 12:30N 46°10' W 123°55'0 0.0
2017-Apr-19 12:00N 46°10' W 123°55'0 0.0
2017-Apr-19 11:30N 46°10' W 123°55'0 0.0
2017-Apr-19 11:00N 46°10' W 123°55'0 0.0
2017-Apr-19 10:30N 46°10' W 123°55'0 0.0
2017-Apr-19 10:00N 46°10' W 123°55'0 0.0
2017-Apr-19 09:30N 46°10' W 123°55'0 0.0
2017-Apr-19 09:00N 46°10' W 123°55'0 0.0
2017-Apr-19 08:30N 46°10' W 123°55'0 0.0
2017-Apr-19 08:01N 46°10' W 123°55'0 0.0
2017-Apr-19 07:31N 46°10' W 123°55'0 0.0
2017-Apr-19 07:00N 46°10' W 123°55'0 0.0
2017-Apr-19 06:30N 46°10' W 123°55'0 0.0
2017-Apr-19 06:00N 46°10' W 123°55'0 0.0
2017-Apr-19 05:30N 46°10' W 123°55'0 0.0
2017-Apr-19 05:00N 46°10' W 123°55'0 0.0
2017-Apr-19 04:30N 46°10' W 123°55'0 0.0
2017-Apr-19 04:01N 46°10' W 123°55'0 0.0
2017-Apr-19 03:31N 46°10' W 123°55'0 0.0
2017-Apr-19 03:00N 46°10' W 123°55'0 0.0
2017-Apr-19 02:30N 46°10' W 123°55'0 0.0
2017-Apr-19 02:01N 46°10' W 123°55'0 0.0
2017-Apr-19 01:30N 46°10' W 123°55'0 0.0
2017-Apr-19 01:01N 46°10' W 123°55'0 0.0
2017-Apr-19 00:30N 46°10' W 123°55'0 0.0
2017-Apr-19 00:00N 46°10' W 123°55'0 0.0
2017-Apr-18 23:30N 46°10' W 123°55'0 0.0
2017-Apr-18 23:00N 46°10' W 123°55'0 0.0
2017-Apr-18 22:30N 46°10' W 123°55'0 0.0
2017-Apr-18 22:00N 46°10' W 123°55'0 0.0
2017-Apr-18 21:30N 46°10' W 123°55'0 0.0
2017-Apr-18 21:00N 46°10' W 123°55'0 0.0
2017-Apr-18 20:30N 46°10' W 123°55'0 0.0
2017-Apr-18 20:01N 46°10' W 123°55'0 0.0
2017-Apr-18 19:30N 46°10' W 123°55'0 0.0
2017-Apr-18 19:00N 46°10' W 123°55'0 0.0
2017-Apr-18 18:30N 46°10' W 123°55'0 0.0
2017-Apr-18 18:00N 46°10' W 123°55'0 0.0
2017-Apr-18 17:30N 46°10' W 123°55'0 0.0
2017-Apr-18 17:00N 46°10' W 123°55'0 0.0
2017-Apr-18 16:30N 46°10' W 123°55'0 0.0
2017-Apr-18 16:00N 46°10' W 123°55'0 0.0
2017-Apr-18 15:30N 46°10' W 123°55'0 0.0
2017-Apr-18 15:00N 46°10' W 123°55'0 0.0
2017-Apr-18 14:30N 46°10' W 123°55'0 0.0
2017-Apr-18 13:30N 46°10' W 123°55'0 0.0
2017-Apr-18 13:00N 46°10' W 123°55'0 0.0
2017-Apr-18 12:30N 46°10' W 123°55'0 0.0
2017-Apr-18 12:01N 46°10' W 123°55'0 0.0
2017-Apr-18 11:31N 46°10' W 123°55'0 0.0
2017-Apr-18 11:00N 46°10' W 123°55'0 0.0
2017-Apr-18 10:30N 46°10' W 123°55'0 0.0
2017-Apr-18 10:00N 46°10' W 123°55'0 0.0
2017-Apr-18 09:30N 46°10' W 123°55'0 0.0
2017-Apr-18 09:00N 46°10' W 123°55'0 0.0
2017-Apr-18 08:30N 46°10' W 123°55'0 0.0
2017-Apr-18 08:01N 46°10' W 123°55'0 0.0
2017-Apr-18 07:30N 46°10' W 123°55'0 0.0
2017-Apr-18 07:00N 46°10' W 123°55'0 0.0
2017-Apr-18 06:30N 46°10' W 123°55'0 0.0
2017-Apr-18 06:01N 46°10' W 123°55'0 0.0
2017-Apr-18 05:30N 46°10' W 123°55'0 0.0
2017-Apr-18 05:00N 46°10' W 123°55'0 0.0
2017-Apr-18 04:31N 46°10' W 123°55'0 0.0
2017-Apr-18 04:00N 46°10' W 123°55'0 0.0
2017-Apr-18 03:30N 46°10' W 123°55'0 0.0
2017-Apr-18 03:00N 46°10' W 123°55'0 0.0
2017-Apr-18 02:30N 46°10' W 123°55'0 0.0
2017-Apr-18 02:01N 46°10' W 123°55'0 0.0
2017-Apr-18 01:30N 46°10' W 123°55'0 0.0
2017-Apr-18 01:00N 46°10' W 123°55'0 0.0
2017-Apr-18 00:30N 46°10' W 123°55'0 0.0
2017-Apr-18 00:00N 46°10' W 123°55'0 0.0
2017-Apr-17 23:30N 46°10' W 123°55'0 0.0
2017-Apr-17 23:00N 46°10' W 123°55'0 0.0
2017-Apr-17 22:30N 46°10' W 123°55'0 0.0
2017-Apr-17 22:01N 46°10' W 123°55'0 0.0
2017-Apr-17 21:30N 46°10' W 123°55'0 0.0
2017-Apr-17 21:01N 46°10' W 123°55'0 0.0
2017-Apr-17 20:30N 46°10' W 123°55'0 0.0
2017-Apr-17 20:00N 46°10' W 123°55'0 0.0
2017-Apr-17 19:30N 46°10' W 123°55'0 0.0
2017-Apr-17 19:00N 46°10' W 123°55'0 0.0
2017-Apr-17 18:31N 46°10' W 123°55'0 0.0
2017-Apr-17 18:00N 46°10' W 123°55'0 0.0
2017-Apr-17 17:30N 46°10' W 123°55'0 0.0
2017-Apr-17 17:00N 46°10' W 123°55'0 0.0
2017-Apr-17 16:31N 46°10' W 123°55'0 0.0
2017-Apr-17 16:00N 46°10' W 123°55'0 0.0
2017-Apr-17 15:30N 46°10' W 123°55'0 0.0
2017-Apr-17 15:01N 46°10' W 123°55'0 0.0
2017-Apr-17 14:30N 46°10' W 123°55'0 0.0
2017-Apr-17 13:31N 46°10' W 123°55'0 0.0
2017-Apr-17 13:00N 46°10' W 123°55'0 0.0
2017-Apr-17 12:30N 46°10' W 123°55'0 0.0
2017-Apr-17 12:00N 46°10' W 123°55'0 0.0
2017-Apr-17 11:30N 46°10' W 123°55'0 0.0
2017-Apr-17 11:01N 46°10' W 123°55'0 0.0
2017-Apr-17 10:31N 46°10' W 123°55'0 0.0
2017-Apr-17 10:00N 46°10' W 123°55'0 0.0
2017-Apr-17 09:30N 46°10' W 123°55'0 0.0
2017-Apr-17 09:00N 46°10' W 123°55'0 0.0
2017-Apr-17 08:31N 46°10' W 123°55'0 0.0
2017-Apr-17 08:00N 46°10' W 123°55'0 0.0
2017-Apr-17 07:30N 46°10' W 123°55'0 0.0
2017-Apr-17 07:01N 46°10' W 123°55'0 0.0
2017-Apr-17 06:30N 46°10' W 123°55'0 0.0
2017-Apr-17 06:00N 46°10' W 123°55'0 0.0
2017-Apr-17 05:30N 46°10' W 123°55'0 0.0
2017-Apr-17 05:01N 46°10' W 123°55'0 0.0
2017-Apr-17 04:30N 46°10' W 123°55'0 0.0
2017-Apr-17 04:00N 46°10' W 123°55'0 0.0
2017-Apr-17 03:30N 46°10' W 123°55'0 0.0
2017-Apr-17 03:00N 46°10' W 123°55'0 0.0
2017-Apr-17 02:30N 46°10' W 123°55'0 0.0
2017-Apr-17 02:00N 46°10' W 123°55'0 0.0
2017-Apr-17 01:31N 46°10' W 123°55'0 0.0
2017-Apr-17 01:00N 46°10' W 123°55'0 0.0
2017-Apr-17 00:31N 46°10' W 123°55'0 0.0
2017-Apr-17 00:00N 46°10' W 123°55'0 0.0
2017-Apr-16 23:30N 46°10' W 123°55'0 0.0
2017-Apr-16 23:00N 46°10' W 123°55'0 0.0
2017-Apr-16 22:30N 46°10' W 123°55'0 0.0
2017-Apr-16 22:01N 46°10' W 123°55'0 0.0
2017-Apr-16 21:30N 46°10' W 123°55'0 0.0
2017-Apr-16 21:00N 46°10' W 123°55'0 0.0
2017-Apr-16 20:31N 46°10' W 123°55'0 0.0
2017-Apr-16 20:00N 46°10' W 123°55'0 0.0
2017-Apr-16 19:30N 46°10' W 123°55'0 0.0
2017-Apr-16 19:01N 46°10' W 123°55'0 0.0
2017-Apr-16 18:30N 46°10' W 123°55'0 0.0
2017-Apr-16 18:00N 46°10' W 123°55'0 0.0
2017-Apr-16 17:30N 46°10' W 123°55'0 0.0
2017-Apr-16 17:00N 46°10' W 123°55'0 0.0
2017-Apr-16 16:30N 46°10' W 123°55'0 0.0
2017-Apr-16 16:00N 46°10' W 123°55'0 0.0
2017-Apr-16 15:30N 46°10' W 123°55'0 0.0
2017-Apr-16 15:00N 46°10' W 123°55'0 0.0
2017-Apr-16 14:00N 46°10' W 123°55'0 0.0
2017-Apr-16 13:30N 46°10' W 123°55'0 0.0
2017-Apr-16 13:00N 46°10' W 123°55'0 0.0
2017-Apr-16 12:30N 46°10' W 123°55'0 0.0
2017-Apr-16 12:00N 46°10' W 123°55'0 0.0
2017-Apr-16 11:30N 46°10' W 123°55'0 0.0
2017-Apr-16 11:00N 46°10' W 123°55'0 0.0
2017-Apr-16 10:30N 46°10' W 123°55'0 0.0
2017-Apr-16 10:00N 46°10' W 123°55'0 0.0
2017-Apr-16 09:30N 46°10' W 123°55'0 0.0
2017-Apr-16 09:00N 46°10' W 123°55'0 0.0
2017-Apr-16 08:30N 46°10' W 123°55'0 0.0
2017-Apr-16 08:00N 46°10' W 123°55'0 0.0
2017-Apr-16 07:30N 46°10' W 123°55'0 0.0
2017-Apr-16 07:00N 46°10' W 123°55'0 0.0
2017-Apr-16 06:30N 46°10' W 123°55'0 0.0
2017-Apr-16 06:00N 46°10' W 123°55'0 0.0
2017-Apr-16 05:30N 46°10' W 123°55'0 0.0
2017-Apr-16 05:00N 46°10' W 123°55'0 0.0
2017-Apr-16 04:30N 46°10' W 123°55'0 0.0
2017-Apr-16 04:00N 46°10' W 123°55'0 0.0
2017-Apr-16 03:30N 46°10' W 123°55'0 0.0
2017-Apr-16 03:00N 46°10' W 123°55'0 0.0
2017-Apr-16 02:30N 46°10' W 123°55'0 0.0
2017-Apr-16 02:00N 46°10' W 123°55'0 0.0
2017-Apr-16 01:30N 46°10' W 123°55'0 0.0
2017-Apr-16 01:00N 46°10' W 123°55'0 0.0
2017-Apr-16 00:30N 46°10' W 123°55'0 0.0
2017-Apr-16 00:00N 46°10' W 123°55'0 0.0
2017-Apr-15 23:30N 46°10' W 123°55'0 0.0
2017-Apr-15 23:00N 46°10' W 123°55'0 0.0
2017-Apr-15 22:30N 46°10' W 123°55'0 0.0
2017-Apr-15 22:00N 46°10' W 123°55'0 0.0
2017-Apr-15 21:30N 46°10' W 123°55'0 0.0
2017-Apr-15 21:00N 46°10' W 123°55'0 0.0
2017-Apr-15 20:30N 46°10' W 123°55'0 0.0
2017-Apr-15 20:00N 46°10' W 123°55'0 0.0
2017-Apr-15 19:30N 46°10' W 123°55'0 0.0
2017-Apr-15 19:00N 46°10' W 123°55'0 0.0
2017-Apr-15 18:30N 46°10' W 123°55'0 0.0
2017-Apr-15 18:00N 46°10' W 123°55'0 0.0
2017-Apr-15 17:30N 46°10' W 123°55'0 0.0
2017-Apr-15 17:00N 46°10' W 123°55'0 0.0
2017-Apr-15 16:30N 46°10' W 123°55'0 0.0
2017-Apr-15 16:00N 46°10' W 123°55'0 0.0
2017-Apr-15 15:30N 46°10' W 123°55'0 0.0
2017-Apr-15 15:00N 46°10' W 123°55'0 0.0
2017-Apr-15 14:30N 46°10' W 123°55'0 0.0
2017-Apr-15 13:30N 46°10' W 123°55'0 0.0
2017-Apr-15 13:00N 46°10' W 123°55'0 0.0
2017-Apr-15 12:30N 46°10' W 123°55'  
Track history (hours):
 
Tides and Currents Weather Stations Pressure Air Temp Water Temp Dewpoint Dewpoint Depression Visibility Wind Speed Wind Dir Waves Ship Positions

Iron Lady

Owner: IRON LADY INC, SOUTH BEND, WA. More information available from US FCC via Universal Licensing System and Coast Guard Vessel Documentation Center.

Last reported at 2017-Apr-25 12:01 UTC. Time now 2017-Apr-25 12:18 UTC.
Position N 46°10' W 123°55'.

Type: Fishing. MMSI: 367037240.

Date/timePositionNaut miles runAvg speedWind from/ knotsBaromVisibWave heightAir tempDewpointWater temp
2017-Apr-25 12:01N 46°10' W 123°55'0 0.0
2017-Apr-25 11:31N 46°10' W 123°55'0 0.0
2017-Apr-25 11:01N 46°10' W 123°55'0 0.0
2017-Apr-25 10:31N 46°10' W 123°55'0 0.0
2017-Apr-25 10:01N 46°10' W 123°55'0 0.0
2017-Apr-25 09:31N 46°10' W 123°55'0 0.0
2017-Apr-25 09:01N 46°10' W 123°55'0 0.0
2017-Apr-25 08:31N 46°10' W 123°55'0 0.0
2017-Apr-25 08:00N 46°10' W 123°55'0 0.0
2017-Apr-25 07:31N 46°10' W 123°55'0 0.0
2017-Apr-25 07:01N 46°10' W 123°55'0 0.0
2017-Apr-25 06:30N 46°10' W 123°55'0 0.0
2017-Apr-25 06:01N 46°10' W 123°55'0 0.0
2017-Apr-25 05:31N 46°10' W 123°55'0 0.0
2017-Apr-25 05:01N 46°10' W 123°55'0 0.0
2017-Apr-25 04:31N 46°10' W 123°55'0 0.0
2017-Apr-25 04:01N 46°10' W 123°55'0 0.0
2017-Apr-25 03:31N 46°10' W 123°55'0 0.0
2017-Apr-25 03:00N 46°10' W 123°55'0 0.0
2017-Apr-25 02:31N 46°10' W 123°55'0 0.0
2017-Apr-25 02:01N 46°10' W 123°55'0 0.0
2017-Apr-25 01:31N 46°10' W 123°55'0 0.0
2017-Apr-25 01:00N 46°10' W 123°55'0 0.0
2017-Apr-25 00:31N 46°10' W 123°55'0 0.0
2017-Apr-25 00:01N 46°10' W 123°55'0 0.0
2017-Apr-24 23:31N 46°10' W 123°55'0 0.0
2017-Apr-24 23:00N 46°10' W 123°55'0 0.0
2017-Apr-24 22:31N 46°10' W 123°55'0 0.0
2017-Apr-24 22:00N 46°10' W 123°55'1 1.8
2017-Apr-24 21:30N 46°11' W 123°54'3 5.9
2017-Apr-24 21:01N 46°13' W 123°58'3 6.0
2017-Apr-24 20:31N 46°15' W 124°01'3 6.7
2017-Apr-24 20:01N 46°15' W 124°06'4 7.5
2017-Apr-24 19:29N 46°18' W 124°10'4 7.7
2017-Apr-24 19:00N 46°21' W 124°13'4 7.3
2017-Apr-24 18:31N 46°25' W 124°14'4 7.3
2017-Apr-24 18:01N 46°28' W 124°15'3 6.7
2017-Apr-24 17:31N 46°31' W 124°17'3 6.3
2017-Apr-24 17:00N 46°34' W 124°20'3 5.8
2017-Apr-24 16:31N 46°36' W 124°23'4 6.4
2017-Apr-24 15:52N 46°39' W 124°26'3 7.2
2017-Apr-24 15:31N 46°41' W 124°28'3 6.8
2017-Apr-24 15:01N 46°44' W 124°31'1 2.7
2017-Apr-24 14:30N 46°45' W 124°32'2 2.5
2017-Apr-24 13:31N 46°48' W 124°33'1 2.5
2017-Apr-24 13:01N 46°49' W 124°33'1 2.5
2017-Apr-24 12:31N 46°50' W 124°34'1 2.7
2017-Apr-24 12:01N 46°52' W 124°34'3 5.5
2017-Apr-24 11:30N 46°54' W 124°36'4 6.7
2017-Apr-24 10:58N 46°57' W 124°40'3 6.5
2017-Apr-24 10:28N 46°59' W 124°43'2 0.2
2017-Apr-23 19:47N 46°57' W 124°43'2 5.8
2017-Apr-23 19:30N 46°55' W 124°43'1 2.1
2017-Apr-23 19:00N 46°54' W 124°44'1 2.7
2017-Apr-23 18:29N 46°53' W 124°44'8 3.3
2017-Apr-23 16:00N 46°45' W 124°43'  
2017-Apr-21 07:34N 46°28' W 124°29'21 8.9
2017-Apr-21 05:16N 46°15' W 124°06'2 9.1
2017-Apr-21 05:00N 46°16' W 124°03'7 8.6
2017-Apr-21 04:09N 46°11' W 123°54'1 6.2
2017-Apr-21 04:00N 46°10' W 123°55'0 0.0
2017-Apr-21 03:30N 46°10' W 123°55'0 0.0
2017-Apr-21 03:00N 46°10' W 123°55'0 0.0
2017-Apr-21 02:30N 46°10' W 123°55'0 0.0
2017-Apr-21 02:00N 46°10' W 123°55'0 0.0
2017-Apr-21 01:30N 46°10' W 123°55'0 0.0
2017-Apr-21 01:01N 46°10' W 123°55'0 0.0
2017-Apr-21 00:31N 46°10' W 123°55'0 0.0
2017-Apr-21 00:00N 46°10' W 123°55'0 0.0
2017-Apr-20 23:30N 46°10' W 123°55'0 0.0
2017-Apr-20 23:00N 46°10' W 123°55'0 0.0
2017-Apr-20 22:31N 46°10' W 123°55'0 0.0
2017-Apr-20 22:01N 46°10' W 123°55'0 0.0
2017-Apr-20 21:30N 46°10' W 123°55'0 0.0
2017-Apr-20 21:00N 46°10' W 123°55'0 0.0
2017-Apr-20 20:30N 46°10' W 123°55'0 0.0
2017-Apr-20 20:00N 46°10' W 123°55'0 0.0
2017-Apr-20 19:30N 46°10' W 123°55'0 0.0
2017-Apr-20 19:00N 46°10' W 123°55'0 0.0
2017-Apr-20 18:30N 46°10' W 123°55'0 0.0
2017-Apr-20 18:00N 46°10' W 123°55'0 0.1
2017-Apr-20 17:30N 46°10' W 123°55'0 0.1
2017-Apr-20 17:00N 46°10' W 123°55'0 0.1
2017-Apr-20 16:30N 46°10' W 123°55'0 0.0
2017-Apr-20 16:00N 46°10' W 123°55'0 0.0
2017-Apr-20 15:30N 46°10' W 123°55'0 0.0
2017-Apr-20 15:00N 46°10' W 123°55'0 0.0
2017-Apr-20 14:00N 46°10' W 123°55'0 0.0
2017-Apr-20 13:30N 46°10' W 123°55'0 0.0
2017-Apr-20 13:01N 46°10' W 123°55'0 0.0
2017-Apr-20 12:30N 46°10' W 123°55'0 0.0
2017-Apr-20 12:00N 46°10' W 123°55'0 0.0
2017-Apr-20 11:30N 46°10' W 123°55'0 0.0
2017-Apr-20 11:00N 46°10' W 123°55'0 0.0
2017-Apr-20 10:30N 46°10' W 123°55'0 0.0
2017-Apr-20 10:00N 46°10' W 123°55'0 0.0
2017-Apr-20 09:30N 46°10' W 123°55'0 0.0
2017-Apr-20 09:00N 46°10' W 123°55'0 0.0
2017-Apr-20 08:31N 46°10' W 123°55'0 0.0
2017-Apr-20 08:01N 46°10' W 123°55'0 0.0
2017-Apr-20 07:30N 46°10' W 123°55'0 0.0
2017-Apr-20 07:00N 46°10' W 123°55'0 0.0
2017-Apr-20 06:30N 46°10' W 123°55'0 0.0
2017-Apr-20 06:00N 46°10' W 123°55'0 0.0
2017-Apr-20 05:30N 46°10' W 123°55'0 0.0
2017-Apr-20 05:01N 46°10' W 123°55'0 0.0
2017-Apr-20 04:30N 46°10' W 123°55'0 0.0
2017-Apr-20 04:00N 46°10' W 123°55'0 0.0
2017-Apr-20 03:30N 46°10' W 123°55'0 0.0
2017-Apr-20 03:00N 46°10' W 123°55'0 0.0
2017-Apr-20 02:30N 46°10' W 123°55'0 0.0
2017-Apr-20 02:01N 46°10' W 123°55'0 0.0
2017-Apr-20 01:30N 46°10' W 123°55'0 0.0
2017-Apr-20 01:01N 46°10' W 123°55'0 0.0
2017-Apr-20 00:30N 46°10' W 123°55'0 0.0
2017-Apr-20 00:01N 46°10' W 123°55'0 0.0
2017-Apr-19 23:31N 46°10' W 123°55'0 0.0
2017-Apr-19 23:00N 46°10' W 123°55'0 0.0
2017-Apr-19 22:30N 46°10' W 123°55'0 0.0
2017-Apr-19 22:00N 46°10' W 123°55'0 0.0
2017-Apr-19 21:30N 46°10' W 123°55'0 0.0
2017-Apr-19 21:00N 46°10' W 123°55'0 0.0
2017-Apr-19 20:30N 46°10' W 123°55'0 0.0
2017-Apr-19 20:00N 46°10' W 123°55'0 0.0
2017-Apr-19 19:31N 46°10' W 123°55'0 0.0
2017-Apr-19 19:00N 46°10' W 123°55'0 0.0
2017-Apr-19 18:30N 46°10' W 123°55'0 0.0
2017-Apr-19 18:00N 46°10' W 123°55'0 0.0
2017-Apr-19 17:30N 46°10' W 123°55'0 0.0
2017-Apr-19 17:00N 46°10' W 123°55'0 0.0
2017-Apr-19 16:30N 46°10' W 123°55'0 0.0
2017-Apr-19 16:00N 46°10' W 123°55'0 0.0
2017-Apr-19 15:31N 46°10' W 123°55'0 0.0
2017-Apr-19 15:00N 46°10' W 123°55'0 0.0
2017-Apr-19 14:30N 46°10' W 123°55'0 0.0
2017-Apr-19 13:31N 46°10' W 123°55'0 0.0
2017-Apr-19 13:00N 46°10' W 123°55'0 0.0
2017-Apr-19 12:30N 46°10' W 123°55'0 0.0
2017-Apr-19 12:00N 46°10' W 123°55'0 0.0
2017-Apr-19 11:30N 46°10' W 123°55'0 0.0
2017-Apr-19 11:00N 46°10' W 123°55'0 0.0
2017-Apr-19 10:30N 46°10' W 123°55'0 0.0
2017-Apr-19 10:00N 46°10' W 123°55'0 0.0
2017-Apr-19 09:30N 46°10' W 123°55'0 0.0
2017-Apr-19 09:00N 46°10' W 123°55'0 0.0
2017-Apr-19 08:30N 46°10' W 123°55'0 0.0
2017-Apr-19 08:01N 46°10' W 123°55'0 0.0
2017-Apr-19 07:31N 46°10' W 123°55'0 0.0
2017-Apr-19 07:00N 46°10' W 123°55'0 0.0
2017-Apr-19 06:30N 46°10' W 123°55'0 0.0
2017-Apr-19 06:00N 46°10' W 123°55'0 0.0
2017-Apr-19 05:30N 46°10' W 123°55'0 0.0
2017-Apr-19 05:00N 46°10' W 123°55'0 0.0
2017-Apr-19 04:30N 46°10' W 123°55'0 0.0
2017-Apr-19 04:01N 46°10' W 123°55'0 0.0
2017-Apr-19 03:31N 46°10' W 123°55'0 0.0
2017-Apr-19 03:00N 46°10' W 123°55'0 0.0
2017-Apr-19 02:30N 46°10' W 123°55'0 0.0
2017-Apr-19 02:01N 46°10' W 123°55'0 0.0
2017-Apr-19 01:30N 46°10' W 123°55'0 0.0
2017-Apr-19 01:01N 46°10' W 123°55'0 0.0
2017-Apr-19 00:30N 46°10' W 123°55'0 0.0
2017-Apr-19 00:00N 46°10' W 123°55'0 0.0
2017-Apr-18 23:30N 46°10' W 123°55'0 0.0
2017-Apr-18 23:00N 46°10' W 123°55'0 0.0
2017-Apr-18 22:30N 46°10' W 123°55'0 0.0
2017-Apr-18 22:00N 46°10' W 123°55'0 0.0
2017-Apr-18 21:30N 46°10' W 123°55'0 0.0
2017-Apr-18 21:00N 46°10' W 123°55'0 0.0
2017-Apr-18 20:30N 46°10' W 123°55'0 0.0
2017-Apr-18 20:01N 46°10' W 123°55'0 0.0
2017-Apr-18 19:30N 46°10' W 123°55'0 0.0
2017-Apr-18 19:00N 46°10' W 123°55'0 0.0
2017-Apr-18 18:30N 46°10' W 123°55'0 0.0
2017-Apr-18 18:00N 46°10' W 123°55'0 0.0
2017-Apr-18 17:30N 46°10' W 123°55'0 0.0
2017-Apr-18 17:00N 46°10' W 123°55'0 0.0
2017-Apr-18 16:30N 46°10' W 123°55'0 0.0
2017-Apr-18 16:00N 46°10' W 123°55'0 0.0
2017-Apr-18 15:30N 46°10' W 123°55'0 0.0
2017-Apr-18 15:00N 46°10' W 123°55'0 0.0
2017-Apr-18 14:30N 46°10' W 123°55'0 0.0
2017-Apr-18 13:30N 46°10' W 123°55'0 0.0
2017-Apr-18 13:00N 46°10' W 123°55'0 0.0
2017-Apr-18 12:30N 46°10' W 123°55'0 0.0
2017-Apr-18 12:01N 46°10' W 123°55'0 0.0
2017-Apr-18 11:31N 46°10' W 123°55'0 0.0
2017-Apr-18 11:00N 46°10' W 123°55'0 0.0
2017-Apr-18 10:30N 46°10' W 123°55'0 0.0
2017-Apr-18 10:00N 46°10' W 123°55'0 0.0
2017-Apr-18 09:30N 46°10' W 123°55'0 0.0
2017-Apr-18 09:00N 46°10' W 123°55'0 0.0
2017-Apr-18 08:30N 46°10' W 123°55'0 0.0
2017-Apr-18 08:01N 46°10' W 123°55'0 0.0
2017-Apr-18 07:30N 46°10' W 123°55'0 0.0
2017-Apr-18 07:00N 46°10' W 123°55'0 0.0
2017-Apr-18 06:30N 46°10' W 123°55'0 0.0
2017-Apr-18 06:01N 46°10' W 123°55'0 0.0
2017-Apr-18 05:30N 46°10' W 123°55'0 0.0
2017-Apr-18 05:00N 46°10' W 123°55'0 0.0
2017-Apr-18 04:31N 46°10' W 123°55'0 0.0
2017-Apr-18 04:00N 46°10' W 123°55'0 0.0
2017-Apr-18 03:30N 46°10' W 123°55'0 0.0
2017-Apr-18 03:00N 46°10' W 123°55'0 0.0
2017-Apr-18 02:30N 46°10' W 123°55'0 0.0
2017-Apr-18 02:01N 46°10' W 123°55'0 0.0
2017-Apr-18 01:30N 46°10' W 123°55'0 0.0
2017-Apr-18 01:00N 46°10' W 123°55'0 0.0
2017-Apr-18 00:30N 46°10' W 123°55'0 0.0
2017-Apr-18 00:00N 46°10' W 123°55'0 0.0
2017-Apr-17 23:30N 46°10' W 123°55'0 0.0
2017-Apr-17 23:00N 46°10' W 123°55'0 0.0
2017-Apr-17 22:30N 46°10' W 123°55'0 0.0
2017-Apr-17 22:01N 46°10' W 123°55'0 0.0
2017-Apr-17 21:30N 46°10' W 123°55'0 0.0
2017-Apr-17 21:01N 46°10' W 123°55'0 0.0
2017-Apr-17 20:30N 46°10' W 123°55'0 0.0
2017-Apr-17 20:00N 46°10' W 123°55'0 0.0
2017-Apr-17 19:30N 46°10' W 123°55'0 0.0
2017-Apr-17 19:00N 46°10' W 123°55'0 0.0
2017-Apr-17 18:31N 46°10' W 123°55'0 0.0
2017-Apr-17 18:00N 46°10' W 123°55'0 0.0
2017-Apr-17 17:30N 46°10' W 123°55'0 0.0
2017-Apr-17 17:00N 46°10' W 123°55'0 0.0
2017-Apr-17 16:31N 46°10' W 123°55'0 0.0
2017-Apr-17 16:00N 46°10' W 123°55'0 0.0
2017-Apr-17 15:30N 46°10' W 123°55'0 0.0
2017-Apr-17 15:01N 46°10' W 123°55'0 0.0
2017-Apr-17 14:30N 46°10' W 123°55'0 0.0
2017-Apr-17 13:31N 46°10' W 123°55'0 0.0
2017-Apr-17 13:00N 46°10' W 123°55'0 0.0
2017-Apr-17 12:30N 46°10' W 123°55'0 0.0
2017-Apr-17 12:00N 46°10' W 123°55'0 0.0
2017-Apr-17 11:30N 46°10' W 123°55'0 0.0
2017-Apr-17 11:01N 46°10' W 123°55'0 0.0
2017-Apr-17 10:31N 46°10' W 123°55'0 0.0
2017-Apr-17 10:00N 46°10' W 123°55'0 0.0
2017-Apr-17 09:30N 46°10' W 123°55'0 0.0
2017-Apr-17 09:00N 46°10' W 123°55'0 0.0
2017-Apr-17 08:31N 46°10' W 123°55'0 0.0
2017-Apr-17 08:00N 46°10' W 123°55'0 0.0
2017-Apr-17 07:30N 46°10' W 123°55'0 0.0
2017-Apr-17 07:01N 46°10' W 123°55'0 0.0
2017-Apr-17 06:30N 46°10' W 123°55'0 0.0
2017-Apr-17 06:00N 46°10' W 123°55'0 0.0
2017-Apr-17 05:30N 46°10' W 123°55'0 0.0
2017-Apr-17 05:01N 46°10' W 123°55'0 0.0
2017-Apr-17 04:30N 46°10' W 123°55'0 0.0
2017-Apr-17 04:00N 46°10' W 123°55'0 0.0
2017-Apr-17 03:30N 46°10' W 123°55'0 0.0
2017-Apr-17 03:00N 46°10' W 123°55'0 0.0
2017-Apr-17 02:30N 46°10' W 123°55'0 0.0
2017-Apr-17 02:00N 46°10' W 123°55'0 0.0
2017-Apr-17 01:31N 46°10' W 123°55'0 0.0
2017-Apr-17 01:00N 46°10' W 123°55'0 0.0
2017-Apr-17 00:31N 46°10' W 123°55'0 0.0
2017-Apr-17 00:00N 46°10' W 123°55'0 0.0
2017-Apr-16 23:30N 46°10' W 123°55'0 0.0
2017-Apr-16 23:00N 46°10' W 123°55'0 0.0
2017-Apr-16 22:30N 46°10' W 123°55'0 0.0
2017-Apr-16 22:01N 46°10' W 123°55'0 0.0
2017-Apr-16 21:30N 46°10' W 123°55'0 0.0
2017-Apr-16 21:00N 46°10' W 123°55'0 0.0
2017-Apr-16 20:31N 46°10' W 123°55'0 0.0
2017-Apr-16 20:00N 46°10' W 123°55'0 0.0
2017-Apr-16 19:30N 46°10' W 123°55'0 0.0
2017-Apr-16 19:01N 46°10' W 123°55'0 0.0
2017-Apr-16 18:30N 46°10' W 123°55'0 0.0
2017-Apr-16 18:00N 46°10' W 123°55'0 0.0
2017-Apr-16 17:30N 46°10' W 123°55'0 0.0
2017-Apr-16 17:00N 46°10' W 123°55'0 0.0
2017-Apr-16 16:30N 46°10' W 123°55'0 0.0
2017-Apr-16 16:00N 46°10' W 123°55'0 0.0
2017-Apr-16 15:30N 46°10' W 123°55'0 0.0
2017-Apr-16 15:00N 46°10' W 123°55'0 0.0
2017-Apr-16 14:00N 46°10' W 123°55'0 0.0
2017-Apr-16 13:30N 46°10' W 123°55'0 0.0
2017-Apr-16 13:00N 46°10' W 123°55'0 0.0
2017-Apr-16 12:30N 46°10' W 123°55'0 0.0
2017-Apr-16 12:00N 46°10' W 123°55'0 0.0
2017-Apr-16 11:30N 46°10' W 123°55'0 0.0
2017-Apr-16 11:00N 46°10' W 123°55'0 0.0
2017-Apr-16 10:30N 46°10' W 123°55'0 0.0
2017-Apr-16 10:00N 46°10' W 123°55'0 0.0
2017-Apr-16 09:30N 46°10' W 123°55'0 0.0
2017-Apr-16 09:00N 46°10' W 123°55'0 0.0
2017-Apr-16 08:30N 46°10' W 123°55'0 0.0
2017-Apr-16 08:00N 46°10' W 123°55'0 0.0
2017-Apr-16 07:30N 46°10' W 123°55'0 0.0
2017-Apr-16 07:00N 46°10' W 123°55'0 0.0
2017-Apr-16 06:30N 46°10' W 123°55'0 0.0
2017-Apr-16 06:00N 46°10' W 123°55'0 0.0
2017-Apr-16 05:30N 46°10' W 123°55'0 0.0
2017-Apr-16 05:00N 46°10' W 123°55'0 0.0
2017-Apr-16 04:30N 46°10' W 123°55'0 0.0
2017-Apr-16 04:00N 46°10' W 123°55'0 0.0
2017-Apr-16 03:30N 46°10' W 123°55'0 0.0
2017-Apr-16 03:00N 46°10' W 123°55'0 0.0
2017-Apr-16 02:30N 46°10' W 123°55'0 0.0
2017-Apr-16 02:00N 46°10' W 123°55'0 0.0
2017-Apr-16 01:30N 46°10' W 123°55'0 0.0
2017-Apr-16 01:00N 46°10' W 123°55'0 0.0
2017-Apr-16 00:30N 46°10' W 123°55'0 0.0
2017-Apr-16 00:00N 46°10' W 123°55'0 0.0
2017-Apr-15 23:30N 46°10' W 123°55'0 0.0
2017-Apr-15 23:00N 46°10' W 123°55'0 0.0
2017-Apr-15 22:30N 46°10' W 123°55'0 0.0
2017-Apr-15 22:00N 46°10' W 123°55'0 0.0
2017-Apr-15 21:30N 46°10' W 123°55'0 0.0
2017-Apr-15 21:00N 46°10' W 123°55'0 0.0
2017-Apr-15 20:30N 46°10' W 123°55'0 0.0
2017-Apr-15 20:00N 46°10' W 123°55'0 0.0
2017-Apr-15 19:30N 46°10' W 123°55'0 0.0
2017-Apr-15 19:00N 46°10' W 123°55'0 0.0
2017-Apr-15 18:30N 46°10' W 123°55'0 0.0
2017-Apr-15 18:00N 46°10' W 123°55'0 0.0
2017-Apr-15 17:30N 46°10' W 123°55'0 0.0
2017-Apr-15 17:00N 46°10' W 123°55'0 0.0
2017-Apr-15 16:30N 46°10' W 123°55'0 0.0
2017-Apr-15 16:00N 46°10' W 123°55'0 0.0
2017-Apr-15 15:30N 46°10' W 123°55'0 0.0
2017-Apr-15 15:00N 46°10' W 123°55'0 0.0
2017-Apr-15 14:30N 46°10' W 123°55'0 0.0
2017-Apr-15 13:30N 46°10' W 123°55'0 0.0
2017-Apr-15 13:00N 46°10' W 123°55'0 0.0
2017-Apr-15 12:30N 46°10' W 123°55'  

Dump ship's entire track history